sensor_id;sensor_type;location;lat;lon;timestamp;P1;durP1;ratioP1;P2;durP2;ratioP2
12459;SDS011;6295;49.452;8.466;2023-06-26T03:14:12;10.13;;;9.03;;
12459;SDS011;6295;49.452;8.466;2023-06-26T03:18:14;10.23;;;9.23;;
12459;SDS011;6295;49.452;8.466;2023-06-26T03:22:16;9.97;;;8.87;;
12459;SDS011;6295;49.452;8.466;2023-06-26T03:26:18;9.83;;;8.80;;
12459;SDS011;6295;49.452;8.466;2023-06-26T03:30:22;9.17;;;8.23;;
12459;SDS011;6295;49.452;8.466;2023-06-26T03:34:24;9.13;;;8.23;;
12459;SDS011;6295;49.452;8.466;2023-06-26T03:38:26;9.00;;;8.20;;
12459;SDS011;6295;49.452;8.466;2023-06-26T03:42:28;8.70;;;7.90;;
12459;SDS011;6295;49.452;8.466;2023-06-26T03:46:31;9.23;;;8.10;;
12459;SDS011;6295;49.452;8.466;2023-06-26T03:50:33;9.23;;;8.37;;
12459;SDS011;6295;49.452;8.466;2023-06-26T03:54:35;8.27;;;7.57;;
12459;SDS011;6295;49.452;8.466;2023-06-26T03:58:37;9.03;;;8.13;;
12459;SDS011;6295;49.452;8.466;2023-06-26T04:02:41;8.53;;;7.73;;
12459;SDS011;6295;49.452;8.466;2023-06-26T04:06:43;9.17;;;8.30;;
12459;SDS011;6295;49.452;8.466;2023-06-26T04:10:45;9.23;;;8.23;;
12459;SDS011;6295;49.452;8.466;2023-06-26T04:14:47;9.10;;;8.30;;
12459;SDS011;6295;49.452;8.466;2023-06-26T04:18:51;9.23;;;8.33;;
12459;SDS011;6295;49.452;8.466;2023-06-26T04:22:53;9.73;;;8.83;;
12459;SDS011;6295;49.452;8.466;2023-06-26T04:26:55;9.33;;;8.43;;
12459;SDS011;6295;49.452;8.466;2023-06-26T04:30:57;8.83;;;8.03;;
12459;SDS011;6295;49.452;8.466;2023-06-26T04:35:01;9.90;;;8.80;;
12459;SDS011;6295;49.452;8.466;2023-06-26T04:39:03;10.00;;;9.00;;
12459;SDS011;6295;49.452;8.466;2023-06-26T04:43:06;9.60;;;8.60;;
12459;SDS011;6295;49.452;8.466;2023-06-26T04:47:08;9.30;;;8.40;;
12459;SDS011;6295;49.452;8.466;2023-06-26T04:51:12;9.50;;;8.50;;
12459;SDS011;6295;49.452;8.466;2023-06-26T04:55:14;8.97;;;8.07;;
12459;SDS011;6295;49.452;8.466;2023-06-26T04:59:16;9.47;;;8.57;;
12459;SDS011;6295;49.452;8.466;2023-06-26T05:03:18;9.37;;;8.47;;
12459;SDS011;6295;49.452;8.466;2023-06-26T05:07:23;10.50;;;9.40;;
12459;SDS011;6295;49.452;8.466;2023-06-26T05:11:25;9.17;;;8.27;;
12459;SDS011;6295;49.452;8.466;2023-06-26T05:15:27;9.23;;;8.33;;
12459;SDS011;6295;49.452;8.466;2023-06-26T05:19:29;9.17;;;8.10;;
12459;SDS011;6295;49.452;8.466;2023-06-26T05:23:33;9.47;;;8.57;;
12459;SDS011;6295;49.452;8.466;2023-06-26T05:27:36;9.20;;;8.40;;
12459;SDS011;6295;49.452;8.466;2023-06-26T05:31:40;8.90;;;8.07;;
12459;SDS011;6295;49.452;8.466;2023-06-26T05:35:42;8.90;;;8.10;;
12459;SDS011;6295;49.452;8.466;2023-06-26T05:39:48;8.90;;;8.10;;
12459;SDS011;6295;49.452;8.466;2023-06-26T05:43:51;8.60;;;7.80;;
12459;SDS011;6295;49.452;8.466;2023-06-26T05:47:54;8.90;;;8.10;;
12459;SDS011;6295;49.452;8.466;2023-06-26T05:51:56;9.03;;;8.13;;
12459;SDS011;6295;49.452;8.466;2023-06-26T05:56:00;8.50;;;7.70;;
12459;SDS011;6295;49.452;8.466;2023-06-26T06:00:03;9.10;;;8.20;;
12459;SDS011;6295;49.452;8.466;2023-06-26T06:04:13;8.57;;;7.73;;
12459;SDS011;6295;49.452;8.466;2023-06-26T06:08:17;8.83;;;8.03;;
12459;SDS011;6295;49.452;8.466;2023-06-26T06:12:24;9.73;;;8.83;;
12459;SDS011;6295;49.452;8.466;2023-06-26T06:16:26;8.40;;;7.60;;
12459;SDS011;6295;49.452;8.466;2023-06-26T06:20:29;9.23;;;8.33;;
12459;SDS011;6295;49.452;8.466;2023-06-26T06:24:31;8.97;;;8.17;;
12459;SDS011;6295;49.452;8.466;2023-06-26T06:28:35;9.13;;;8.30;;
12459;SDS011;6295;49.452;8.466;2023-06-26T06:32:37;8.37;;;7.57;;
12459;SDS011;6295;49.452;8.466;2023-06-26T06:36:39;9.50;;;8.60;;
12459;SDS011;6295;49.452;8.466;2023-06-26T06:40:41;9.03;;;8.13;;
12459;SDS011;6295;49.452;8.466;2023-06-26T06:44:47;8.83;;;7.97;;
12459;SDS011;6295;49.452;8.466;2023-06-26T06:48:53;8.43;;;7.63;;
12459;SDS011;6295;49.452;8.466;2023-06-26T06:52:55;8.83;;;8.03;;
12459;SDS011;6295;49.452;8.466;2023-06-26T06:56:57;9.20;;;8.27;;
12459;SDS011;6295;49.452;8.466;2023-06-26T07:01:01;9.07;;;8.20;;
12459;SDS011;6295;49.452;8.466;2023-06-26T07:05:04;9.33;;;8.43;;
12459;SDS011;6295;49.452;8.466;2023-06-26T07:09:07;8.93;;;8.17;;
12459;SDS011;6295;49.452;8.466;2023-06-26T07:13:09;9.83;;;8.80;;
12459;SDS011;6295;49.452;8.466;2023-06-26T07:17:13;9.47;;;8.67;;
12459;SDS011;6295;49.452;8.466;2023-06-26T07:21:15;10.03;;;9.03;;
12459;SDS011;6295;49.452;8.466;2023-06-26T07:25:18;9.27;;;8.47;;
12459;SDS011;6295;49.452;8.466;2023-06-26T07:29:23;9.73;;;8.83;;
12459;SDS011;6295;49.452;8.466;2023-06-26T07:33:28;9.27;;;8.30;;
12459;SDS011;6295;49.452;8.466;2023-06-26T07:37:30;9.40;;;8.50;;
12459;SDS011;6295;49.452;8.466;2023-06-26T07:41:32;9.90;;;8.90;;
12459;SDS011;6295;49.452;8.466;2023-06-26T07:45:35;9.47;;;8.57;;
12459;SDS011;6295;49.452;8.466;2023-06-26T07:49:40;9.63;;;8.77;;
12459;SDS011;6295;49.452;8.466;2023-06-26T07:53:45;9.07;;;8.27;;
12459;SDS011;6295;49.452;8.466;2023-06-26T07:57:48;9.17;;;8.27;;
12459;SDS011;6295;49.452;8.466;2023-06-26T08:01:53;9.57;;;8.63;;
12459;SDS011;6295;49.452;8.466;2023-06-26T08:05:57;9.43;;;8.63;;
12459;SDS011;6295;49.452;8.466;2023-06-26T08:09:59;9.43;;;8.40;;
12459;SDS011;6295;49.452;8.466;2023-06-26T08:14:01;9.70;;;8.40;;
12459;SDS011;6295;49.452;8.466;2023-06-26T08:18:03;8.67;;;7.97;;
12459;SDS011;6295;49.452;8.466;2023-06-26T08:22:07;9.07;;;8.27;;
12459;SDS011;6295;49.452;8.466;2023-06-26T08:26:09;9.27;;;8.37;;
12459;SDS011;6295;49.452;8.466;2023-06-26T08:30:14;9.23;;;8.33;;
12459;SDS011;6295;49.452;8.466;2023-06-26T08:34:16;9.10;;;8.27;;
12459;SDS011;6295;49.452;8.466;2023-06-26T08:38:20;9.60;;;8.70;;
12459;SDS011;6295;49.452;8.466;2023-06-26T08:42:22;8.43;;;7.63;;
12459;SDS011;6295;49.452;8.466;2023-06-26T08:46:24;8.63;;;7.83;;
12459;SDS011;6295;49.452;8.466;2023-06-26T08:50:27;8.80;;;8.00;;
12459;SDS011;6295;49.452;8.466;2023-06-26T08:54:34;8.90;;;8.10;;
12459;SDS011;6295;49.452;8.466;2023-06-26T08:58:39;9.57;;;7.87;;
12459;SDS011;6295;49.452;8.466;2023-06-26T09:02:44;8.37;;;7.67;;
12459;SDS011;6295;49.452;8.466;2023-06-26T09:06:49;8.97;;;7.53;;
12459;SDS011;6295;49.452;8.466;2023-06-26T09:10:52;8.70;;;7.90;;
12459;SDS011;6295;49.452;8.466;2023-06-26T09:14:54;11.97;;;7.93;;
12459;SDS011;6295;49.452;8.466;2023-06-26T09:18:57;8.97;;;7.93;;
12459;SDS011;6295;49.452;8.466;2023-06-26T09:23:00;9.37;;;8.47;;
12459;SDS011;6295;49.452;8.466;2023-06-26T09:27:04;8.17;;;7.40;;
12459;SDS011;6295;49.452;8.466;2023-06-26T09:31:06;8.90;;;8.10;;
12459;SDS011;6295;49.452;8.466;2023-06-26T09:35:10;12.00;;;7.80;;
12459;SDS011;6295;49.452;8.466;2023-06-26T09:39:15;8.13;;;7.43;;
12459;SDS011;6295;49.452;8.466;2023-06-26T09:43:19;9.17;;;7.70;;
12459;SDS011;6295;49.452;8.466;2023-06-26T09:47:21;9.50;;;7.63;;
12459;SDS011;6295;49.452;8.466;2023-06-26T09:51:24;9.10;;;8.30;;
12459;SDS011;6295;49.452;8.466;2023-06-26T09:55:26;8.83;;;7.83;;
12459;SDS011;6295;49.452;8.466;2023-06-26T09:59:29;9.63;;;7.70;;
12459;SDS011;6295;49.452;8.466;2023-06-26T10:03:32;8.97;;;8.03;;
12459;SDS011;6295;49.452;8.466;2023-06-26T10:07:34;8.30;;;7.60;;
12459;SDS011;6295;49.452;8.466;2023-06-26T10:11:40;10.17;;;8.93;;
12459;SDS011;6295;49.452;8.466;2023-06-26T10:15:53;9.00;;;8.20;;
12459;SDS011;6295;49.452;8.466;2023-06-26T10:20:01;9.50;;;8.60;;
12459;SDS011;6295;49.452;8.466;2023-06-26T10:24:09;9.10;;;8.30;;
12459;SDS011;6295;49.452;8.466;2023-06-26T10:28:14;9.07;;;8.23;;
12459;SDS011;6295;49.452;8.466;2023-06-26T10:32:19;9.03;;;8.23;;
12459;SDS011;6295;49.452;8.466;2023-06-26T10:36:27;9.67;;;8.67;;
12459;SDS011;6295;49.452;8.466;2023-06-26T10:40:39;9.43;;;8.37;;
12459;SDS011;6295;49.452;8.466;2023-06-26T10:44:42;8.80;;;8.00;;
12459;SDS011;6295;49.452;8.466;2023-06-26T10:48:59;9.17;;;8.27;;
12459;SDS011;6295;49.452;8.466;2023-06-26T10:53:07;9.33;;;8.53;;
12459;SDS011;6295;49.452;8.466;2023-06-26T10:57:22;11.70;;;9.13;;
12459;SDS011;6295;49.452;8.466;2023-06-26T11:01:25;9.87;;;8.90;;
12459;SDS011;6295;49.452;8.466;2023-06-26T11:05:29;9.80;;;8.80;;
12459;SDS011;6295;49.452;8.466;2023-06-26T11:09:34;9.00;;;8.10;;
12459;SDS011;6295;49.452;8.466;2023-06-26T11:13:55;9.03;;;8.13;;
12459;SDS011;6295;49.452;8.466;2023-06-26T11:18:01;9.30;;;8.40;;
12459;SDS011;6295;49.452;8.466;2023-06-26T11:22:07;8.20;;;7.37;;
12459;SDS011;6295;49.452;8.466;2023-06-26T11:26:15;8.30;;;7.50;;
12459;SDS011;6295;49.452;8.466;2023-06-26T11:30:22;8.03;;;7.33;;
12459;SDS011;6295;49.452;8.466;2023-06-26T11:34:28;9.40;;;7.60;;
12459;SDS011;6295;49.452;8.466;2023-06-26T11:38:38;7.40;;;6.70;;
12459;SDS011;6295;49.452;8.466;2023-06-26T11:42:40;9.30;;;6.80;;
12459;SDS011;6295;49.452;8.466;2023-06-26T11:46:42;8.03;;;6.83;;
12459;SDS011;6295;49.452;8.466;2023-06-26T11:50:45;7.73;;;7.00;;
12459;SDS011;6295;49.452;8.466;2023-06-26T11:54:53;8.00;;;7.20;;
12459;SDS011;6295;49.452;8.466;2023-06-26T11:58:56;8.33;;;7.57;;
12459;SDS011;6295;49.452;8.466;2023-06-26T12:03:01;8.40;;;6.77;;
12459;SDS011;6295;49.452;8.466;2023-06-26T12:07:04;8.47;;;6.77;;
12459;SDS011;6295;49.452;8.466;2023-06-26T12:11:10;8.33;;;6.77;;
12459;SDS011;6295;49.452;8.466;2023-06-26T12:15:14;8.63;;;6.50;;
12459;SDS011;6295;49.452;8.466;2023-06-26T12:19:17;7.27;;;6.00;;
12459;SDS011;6295;49.452;8.466;2023-06-26T12:23:31;7.20;;;6.57;;
12459;SDS011;6295;49.452;8.466;2023-06-26T12:27:35;7.60;;;6.73;;
12459;SDS011;6295;49.452;8.466;2023-06-26T12:31:39;6.80;;;6.20;;
12459;SDS011;6295;49.452;8.466;2023-06-26T12:35:43;7.00;;;6.30;;
12459;SDS011;6295;49.452;8.466;2023-06-26T12:39:47;9.03;;;6.93;;
12459;SDS011;6295;49.452;8.466;2023-06-26T12:43:55;7.90;;;7.20;;
12459;SDS011;6295;49.452;8.466;2023-06-26T12:48:06;8.53;;;7.50;;
12459;SDS011;6295;49.452;8.466;2023-06-26T12:52:09;9.07;;;7.93;;
12459;SDS011;6295;49.452;8.466;2023-06-26T12:56:14;12.53;;;8.50;;
12459;SDS011;6295;49.452;8.466;2023-06-26T13:00:19;9.73;;;8.40;;
12459;SDS011;6295;49.452;8.466;2023-06-26T13:04:23;9.27;;;8.37;;
12459;SDS011;6295;49.452;8.466;2023-06-26T13:08:25;9.27;;;8.37;;
12459;SDS011;6295;49.452;8.466;2023-06-26T13:12:29;9.37;;;7.80;;
12459;SDS011;6295;49.452;8.466;2023-06-26T13:16:32;11.40;;;9.17;;
12459;SDS011;6295;49.452;8.466;2023-06-26T13:20:34;10.93;;;9.93;;
12459;SDS011;6295;49.452;8.466;2023-06-26T13:24:37;13.07;;;11.00;;
12459;SDS011;6295;49.452;8.466;2023-06-26T13:28:42;11.37;;;10.27;;
12459;SDS011;6295;49.452;8.466;2023-06-26T13:32:45;11.60;;;10.40;;
12459;SDS011;6295;49.452;8.466;2023-06-26T13:36:49;11.53;;;10.33;;
12459;SDS011;6295;49.452;8.466;2023-06-26T13:40:52;9.50;;;8.70;;
12459;SDS011;6295;49.452;8.466;2023-06-26T13:44:54;8.37;;;7.57;;
12459;SDS011;6295;49.452;8.466;2023-06-26T13:48:58;8.50;;;7.63;;
12459;SDS011;6295;49.452;8.466;2023-06-26T13:53:00;8.67;;;6.40;;
12459;SDS011;6295;49.452;8.466;2023-06-26T13:57:04;6.23;;;4.90;;
12459;SDS011;6295;49.452;8.466;2023-06-26T14:01:12;6.60;;;4.80;;
12459;SDS011;6295;49.452;8.466;2023-06-26T14:05:20;7.53;;;4.33;;
12459;SDS011;6295;49.452;8.466;2023-06-26T14:09:24;5.50;;;3.90;;
12459;SDS011;6295;49.452;8.466;2023-06-26T14:13:26;5.30;;;3.70;;
12459;SDS011;6295;49.452;8.466;2023-06-26T14:17:28;4.93;;;3.90;;
12459;SDS011;6295;49.452;8.466;2023-06-26T14:21:32;5.07;;;3.30;;
12459;SDS011;6295;49.452;8.466;2023-06-26T14:25:34;3.83;;;3.13;;
12459;SDS011;6295;49.452;8.466;2023-06-26T14:29:37;5.60;;;2.93;;
12459;SDS011;6295;49.452;8.466;2023-06-26T14:33:39;5.23;;;3.07;;
12459;SDS011;6295;49.452;8.466;2023-06-26T14:37:42;5.53;;;3.50;;
12459;SDS011;6295;49.452;8.466;2023-06-26T14:41:46;3.57;;;3.00;;
12459;SDS011;6295;49.452;8.466;2023-06-26T14:45:49;5.17;;;3.47;;
12459;SDS011;6295;49.452;8.466;2023-06-26T14:49:52;5.33;;;3.27;;
12459;SDS011;6295;49.452;8.466;2023-06-26T14:53:55;5.10;;;2.80;;
12459;SDS011;6295;49.452;8.466;2023-06-26T14:57:57;5.20;;;3.23;;
12459;SDS011;6295;49.452;8.466;2023-06-26T15:01:59;5.83;;;3.17;;
12459;SDS011;6295;49.452;8.466;2023-06-26T15:06:02;4.03;;;2.80;;
12459;SDS011;6295;49.452;8.466;2023-06-26T15:10:08;6.00;;;3.27;;
12459;SDS011;6295;49.452;8.466;2023-06-26T15:14:14;5.27;;;2.97;;
12459;SDS011;6295;49.452;8.466;2023-06-26T15:18:17;3.30;;;3.00;;
12459;SDS011;6295;49.452;8.466;2023-06-26T15:22:21;3.87;;;3.17;;
12459;SDS011;6295;49.452;8.466;2023-06-26T15:26:28;4.03;;;2.70;;
12459;SDS011;6295;49.452;8.466;2023-06-26T15:30:30;4.80;;;3.30;;
12459;SDS011;6295;49.452;8.466;2023-06-26T15:34:32;4.10;;;2.70;;
12459;SDS011;6295;49.452;8.466;2023-06-26T15:38:34;4.80;;;2.93;;
12459;SDS011;6295;49.452;8.466;2023-06-26T15:42:46;4.20;;;2.80;;
12459;SDS011;6295;49.452;8.466;2023-06-26T15:46:52;3.53;;;2.70;;
12459;SDS011;6295;49.452;8.466;2023-06-26T15:50:54;6.17;;;3.13;;
12459;SDS011;6295;49.452;8.466;2023-06-26T15:54:57;4.13;;;3.00;;
12459;SDS011;6295;49.452;8.466;2023-06-26T15:59:00;4.93;;;2.90;;
12459;SDS011;6295;49.452;8.466;2023-06-26T16:03:02;4.20;;;2.80;;
12459;SDS011;6295;49.452;8.466;2023-06-26T16:07:05;4.37;;;2.73;;
12459;SDS011;6295;49.452;8.466;2023-06-26T16:11:07;6.53;;;2.63;;
12459;SDS011;6295;49.452;8.466;2023-06-26T16:15:12;4.23;;;2.60;;
12459;SDS011;6295;49.452;8.466;2023-06-26T16:19:14;3.50;;;2.50;;
12459;SDS011;6295;49.452;8.466;2023-06-26T16:23:16;6.23;;;2.57;;
12459;SDS011;6295;49.452;8.466;2023-06-26T16:27:19;6.30;;;2.80;;
12459;SDS011;6295;49.452;8.466;2023-06-26T16:31:22;4.03;;;2.60;;
12459;SDS011;6295;49.452;8.466;2023-06-26T16:35:25;4.80;;;2.70;;
12459;SDS011;6295;49.452;8.466;2023-06-26T16:39:29;4.63;;;2.53;;
12459;SDS011;6295;49.452;8.466;2023-06-26T16:43:33;3.20;;;2.60;;
12459;SDS011;6295;49.452;8.466;2023-06-26T16:47:36;3.80;;;2.23;;
12459;SDS011;6295;49.452;8.466;2023-06-26T16:51:38;6.50;;;2.70;;
12459;SDS011;6295;49.452;8.466;2023-06-26T16:55:40;4.60;;;2.70;;
12459;SDS011;6295;49.452;8.466;2023-06-26T16:59:42;5.37;;;2.60;;
12459;SDS011;6295;49.452;8.466;2023-06-26T17:03:46;4.10;;;2.83;;
12459;SDS011;6295;49.452;8.466;2023-06-26T17:07:48;5.17;;;2.20;;
12459;SDS011;6295;49.452;8.466;2023-06-26T17:11:52;4.87;;;2.40;;
12459;SDS011;6295;49.452;8.466;2023-06-26T17:15:54;4.50;;;2.33;;
12459;SDS011;6295;49.452;8.466;2023-06-26T17:19:58;3.70;;;2.17;;
12459;SDS011;6295;49.452;8.466;2023-06-26T17:24:00;5.80;;;2.87;;
12459;SDS011;6295;49.452;8.466;2023-06-26T17:28:03;3.53;;;2.30;;
12459;SDS011;6295;49.452;8.466;2023-06-26T17:32:05;4.93;;;3.10;;
12459;SDS011;6295;49.452;8.466;2023-06-26T17:36:10;3.83;;;2.17;;
12459;SDS011;6295;49.452;8.466;2023-06-26T17:40:13;3.40;;;2.33;;
12459;SDS011;6295;49.452;8.466;2023-06-26T17:44:15;3.37;;;2.33;;
12459;SDS011;6295;49.452;8.466;2023-06-26T17:48:18;3.47;;;2.30;;
12459;SDS011;6295;49.452;8.466;2023-06-26T17:52:24;5.17;;;2.20;;
12459;SDS011;6295;49.452;8.466;2023-06-26T17:56:27;7.67;;;2.40;;
12459;SDS011;6295;49.452;8.466;2023-06-26T18:00:29;5.13;;;2.20;;
12459;SDS011;6295;49.452;8.466;2023-06-26T18:04:32;5.17;;;2.20;;
12459;SDS011;6295;49.452;8.466;2023-06-26T18:08:35;4.40;;;2.40;;
12459;SDS011;6295;49.452;8.466;2023-06-26T18:12:37;2.50;;;2.20;;
12459;SDS011;6295;49.452;8.466;2023-06-26T18:16:40;3.60;;;2.37;;
12459;SDS011;6295;49.452;8.466;2023-06-26T18:20:42;3.93;;;2.30;;
12459;SDS011;6295;49.452;8.466;2023-06-26T18:24:46;2.83;;;2.13;;
12459;SDS011;6295;49.452;8.466;2023-06-26T18:28:48;2.67;;;2.10;;
12459;SDS011;6295;49.452;8.466;2023-06-26T18:32:52;2.90;;;2.33;;
12459;SDS011;6295;49.452;8.466;2023-06-26T18:36:54;4.73;;;2.40;;
12459;SDS011;6295;49.452;8.466;2023-06-26T18:41:00;6.27;;;2.37;;
12459;SDS011;6295;49.452;8.466;2023-06-26T18:45:02;3.87;;;2.50;;
12459;SDS011;6295;49.452;8.466;2023-06-26T18:49:05;3.27;;;2.10;;
12459;SDS011;6295;49.452;8.466;2023-06-26T18:53:09;4.53;;;2.50;;
